createdAt,value
2018-07-14T00:09:42.886Z,59.10
2018-07-14T00:14:46.343Z,60.70
2018-07-14T00:19:49.592Z,60.50
2018-07-14T00:24:52.898Z,60.50
2018-07-14T00:29:56.298Z,61.10
2018-07-14T00:34:59.590Z,61.40
2018-07-14T00:40:02.824Z,61.70
2018-07-14T00:45:07.211Z,60.50
2018-07-14T00:50:10.484Z,59.30
2018-07-14T00:55:13.746Z,62.20
2018-07-14T01:00:17.003Z,60.20
2018-07-14T01:05:20.222Z,59.10
2018-07-14T01:10:23.474Z,62.10
2018-07-14T01:15:26.738Z,62.70
2018-07-14T01:20:29.973Z,63.10
2018-07-14T01:25:33.277Z,60.80
2018-07-14T01:30:36.695Z,61.70
2018-07-14T01:35:39.954Z,61.80
2018-07-14T01:40:43.336Z,63.00
2018-07-14T01:45:46.519Z,63.40
2018-07-14T01:50:49.750Z,64.80
2018-07-14T01:55:53.022Z,62.80
2018-07-14T02:00:56.708Z,63.70
2018-07-14T02:05:59.943Z,65.20
2018-07-14T02:11:03.215Z,64.60
2018-07-14T02:16:06.517Z,65.50
2018-07-14T02:21:09.751Z,66.70
2018-07-14T02:26:12.998Z,67.00
2018-07-14T02:31:16.319Z,67.60
2018-07-14T02:36:19.552Z,67.40
2018-07-14T02:46:25.859Z,68.50
2018-07-14T02:51:29.090Z,69.40
2018-07-14T02:56:32.318Z,68.40
2018-07-14T03:01:35.630Z,68.40
2018-07-14T03:06:38.919Z,68.90
2018-07-14T03:11:42.155Z,68.80
2018-07-14T03:16:45.584Z,69.60
2018-07-14T03:21:48.872Z,70.40
2018-07-14T03:26:52.103Z,70.30
2018-07-14T03:31:55.464Z,70.80
2018-07-14T03:36:58.739Z,70.90
2018-07-14T03:42:02.060Z,71.00
2018-07-14T03:47:05.463Z,71.00
2018-07-14T03:52:08.763Z,71.50
2018-07-14T03:57:12.057Z,71.30
2018-07-14T04:02:15.503Z,71.10
2018-07-14T04:07:18.851Z,70.20
2018-07-14T04:12:22.132Z,71.70
2018-07-14T04:17:25.510Z,72.10
2018-07-14T04:22:28.747Z,71.60
2018-07-14T04:27:32.030Z,72.30
2018-07-14T04:32:35.286Z,70.80
2018-07-14T04:37:38.517Z,68.40
2018-07-14T04:42:41.767Z,69.30
2018-07-14T04:47:45.024Z,69.20
2018-07-14T04:52:48.261Z,68.70
2018-07-14T04:57:51.574Z,67.60
2018-07-14T05:02:54.942Z,66.50
2018-07-14T05:07:58.179Z,66.30
2018-07-14T05:13:01.406Z,66.20
2018-07-14T05:18:04.796Z,63.20
2018-07-14T05:23:08.049Z,64.00
2018-07-14T05:28:11.421Z,63.30
2018-07-14T05:33:14.927Z,62.30
2018-07-14T05:38:18.320Z,62.30
2018-07-14T05:43:21.614Z,61.60
2018-07-14T05:48:24.917Z,61.40
2018-07-14T05:53:28.359Z,62.80
2018-07-14T05:58:31.653Z,61.40
2018-07-14T06:08:38.115Z,59.70
2018-07-14T06:13:41.395Z,59.90
2018-07-14T06:18:44.692Z,58.10
2018-07-14T06:23:47.965Z,58.20
2018-07-14T06:28:51.386Z,56.50
2018-07-14T06:33:55.123Z,55.60
2018-07-14T06:38:58.462Z,57.50
2018-07-14T06:44:01.756Z,56.40
2018-07-14T06:49:05.122Z,57.30
2018-07-14T06:54:08.511Z,56.90
2018-07-14T06:59:11.799Z,55.40
2018-07-14T07:04:15.286Z,55.10
2018-07-14T07:14:21.557Z,57.50
2018-07-14T07:19:24.837Z,58.80
2018-07-14T07:24:28.232Z,61.00
2018-07-14T07:29:31.530Z,62.70
2018-07-14T07:34:34.827Z,57.80
2018-07-14T07:39:44.588Z,58.20
2018-07-14T07:44:48.001Z,56.70
2018-07-14T07:49:51.314Z,58.40
2018-07-14T07:54:54.634Z,58.50
2018-07-14T07:59:57.987Z,55.90
2018-07-14T08:05:01.338Z,58.00
2018-07-14T08:10:04.776Z,55.20
2018-07-14T08:15:08.081Z,55.40
2018-07-14T08:20:11.408Z,55.70
2018-07-14T08:25:21.211Z,56.40
2018-07-14T08:30:24.619Z,55.80
2018-07-14T08:35:27.991Z,58.00
2018-07-14T08:40:31.516Z,58.00
2018-07-14T08:45:34.910Z,56.50
2018-07-14T08:50:38.328Z,54.60
2018-07-14T08:55:41.719Z,54.40
2018-07-14T09:00:45.051Z,54.30
2018-07-14T09:05:48.340Z,56.00
2018-07-14T09:10:58.038Z,56.40
2018-07-14T09:16:01.426Z,57.20
2018-07-14T09:21:05.623Z,56.70
2018-07-14T09:26:09.210Z,54.90
2018-07-14T09:36:15.716Z,54.90
2018-07-14T09:41:18.968Z,54.00
2018-07-14T09:46:22.272Z,51.70
2018-07-14T09:51:25.636Z,50.20
2018-07-14T09:56:29.161Z,53.20
2018-07-14T10:01:32.414Z,53.60
2018-07-14T10:06:35.914Z,53.50
2018-07-14T10:11:39.210Z,49.20
2018-07-14T10:16:42.547Z,49.60
2018-07-14T10:21:46.036Z,51.10
2018-07-14T10:26:49.291Z,50.10
2018-07-14T10:31:52.610Z,50.60
2018-07-14T10:36:57.430Z,47.90
2018-07-14T10:42:01.038Z,46.80
2018-07-14T10:47:04.399Z,45.90
2018-07-14T10:52:08.036Z,44.40
2018-07-14T10:57:11.338Z,43.00
2018-07-14T11:02:14.624Z,44.60
2018-07-14T11:07:17.894Z,46.00
2018-07-14T11:12:21.175Z,44.70
2018-07-14T11:17:24.481Z,43.10
2018-07-14T11:22:27.815Z,44.30
2018-07-14T11:27:31.070Z,37.60
2018-07-14T11:32:35.374Z,37.50
2018-07-14T11:37:38.704Z,40.80
2018-07-14T11:42:41.927Z,41.30
2018-07-14T11:47:45.279Z,44.40
2018-07-14T11:52:48.567Z,45.00
2018-07-14T11:57:51.978Z,45.20
2018-07-14T12:02:55.219Z,43.70
2018-07-14T12:08:24.067Z,42.00
2018-07-14T12:13:27.379Z,46.30
2018-07-14T12:18:30.624Z,44.60
2018-07-14T12:23:34.059Z,45.20
2018-07-14T12:28:37.492Z,43.30
2018-07-14T12:33:40.898Z,45.30
2018-07-14T12:38:44.232Z,43.30
2018-07-14T12:43:47.672Z,45.40
2018-07-14T12:48:50.999Z,41.40
2018-07-14T12:54:02.031Z,40.70
2018-07-14T12:59:05.955Z,39.90
2018-07-14T13:04:09.207Z,40.40
2018-07-14T13:09:12.551Z,43.10
2018-07-14T13:14:15.959Z,43.90
2018-07-14T13:19:19.270Z,42.60
2018-07-14T13:24:22.568Z,41.20
2018-07-14T13:29:26.018Z,39.30
2018-07-14T13:34:29.445Z,39.80
2018-07-14T13:39:33.331Z,41.00
2018-07-14T13:44:37.834Z,40.50
2018-07-14T13:49:41.102Z,40.40
2018-07-14T13:54:44.490Z,40.30
2018-07-14T13:59:47.891Z,39.70
2018-07-14T14:04:51.166Z,40.10
2018-07-14T14:09:54.557Z,40.90
2018-07-14T14:14:57.858Z,38.90
2018-07-14T14:20:01.355Z,38.70
2018-07-14T14:25:04.672Z,36.90
2018-07-14T14:30:08.170Z,36.20
2018-07-14T14:35:11.537Z,37.20
2018-07-14T14:40:14.931Z,38.10
2018-07-14T14:45:18.301Z,37.30
2018-07-14T14:50:21.690Z,36.60
2018-07-14T14:55:25.038Z,37.50
2018-07-14T15:00:28.353Z,36.20
2018-07-14T15:05:31.737Z,35.90
2018-07-14T15:10:35.430Z,36.30
2018-07-14T15:15:39.038Z,35.80
2018-07-14T15:20:42.391Z,35.30
2018-07-14T15:25:45.647Z,35.10
2018-07-14T15:30:49.100Z,35.80
2018-07-14T15:35:52.433Z,34.90
2018-07-14T15:45:58.783Z,37.40
2018-07-14T15:51:02.048Z,37.90
2018-07-14T15:56:06.119Z,38.50
2018-07-14T16:01:09.402Z,37.80
2018-07-14T16:06:12.671Z,38.00
2018-07-14T16:11:16.016Z,38.80
2018-07-14T16:16:19.324Z,37.50
2018-07-14T16:21:22.614Z,36.60
2018-07-14T16:26:25.920Z,37.10
2018-07-14T16:31:29.204Z,37.20
2018-07-14T16:36:32.707Z,37.20
2018-07-14T16:41:36.048Z,37.10
2018-07-14T16:46:39.302Z,37.60
2018-07-14T16:51:42.584Z,35.70
2018-07-14T16:56:45.878Z,35.90
2018-07-14T17:01:49.116Z,36.80
2018-07-14T17:06:52.448Z,36.90
2018-07-14T17:11:55.705Z,36.50
2018-07-14T17:16:59.033Z,37.80
2018-07-14T17:22:08.996Z,37.10
2018-07-14T17:27:12.306Z,37.60
2018-07-14T17:32:15.780Z,37.50
2018-07-14T17:42:22.171Z,37.90
2018-07-14T17:47:25.504Z,38.80
2018-07-14T17:52:28.931Z,39.00
2018-07-14T17:57:32.362Z,40.10
2018-07-14T18:02:35.611Z,39.40
2018-07-14T18:07:38.880Z,39.90
2018-07-14T18:12:42.367Z,40.20
2018-07-14T18:17:45.649Z,40.70
2018-07-14T18:22:48.992Z,40.90
2018-07-14T18:27:52.446Z,40.80
2018-07-14T18:32:55.808Z,41.70
2018-07-14T18:37:59.224Z,41.30
2018-07-14T18:43:02.704Z,42.30
2018-07-14T18:48:06.053Z,43.50
2018-07-14T18:53:09.323Z,44.00
2018-07-14T18:58:12.592Z,44.20
2018-07-14T19:03:15.896Z,44.50
2018-07-14T19:08:19.146Z,44.70
2018-07-14T19:13:22.455Z,45.20
2018-07-14T19:18:25.880Z,45.90
2018-07-14T19:23:29.154Z,45.40
2018-07-14T19:28:40.938Z,45.70
2018-07-14T19:33:44.217Z,45.50
2018-07-14T19:38:47.468Z,46.20
2018-07-14T19:43:50.981Z,46.40
2018-07-14T19:48:54.334Z,46.90
2018-07-14T19:53:57.708Z,47.10
2018-07-14T19:59:01.243Z,47.40
2018-07-14T20:04:04.576Z,47.20
2018-07-14T20:09:07.855Z,46.90
2018-07-14T20:14:11.149Z,46.70
2018-07-14T20:19:14.438Z,47.10
2018-07-14T20:24:17.728Z,47.10
2018-07-14T20:29:21.009Z,47.50
2018-07-14T20:34:24.230Z,47.70
2018-07-14T20:39:27.542Z,48.10
2018-07-14T20:44:31.000Z,48.30
2018-07-14T20:49:34.313Z,48.60
2018-07-14T20:54:37.583Z,48.20
2018-07-14T20:59:41.126Z,48.70
2018-07-14T21:04:44.391Z,48.70
2018-07-14T21:09:47.775Z,48.70
2018-07-14T21:14:51.100Z,48.60
2018-07-14T21:19:54.412Z,47.50
2018-07-14T21:24:57.706Z,48.10
2018-07-14T21:30:01.055Z,48.60
2018-07-14T21:35:04.465Z,48.70
2018-07-14T21:40:07.766Z,48.60
2018-07-14T21:45:11.088Z,48.60
2018-07-14T21:50:14.479Z,48.60
2018-07-14T21:55:17.717Z,49.20
2018-07-14T22:00:33.306Z,49.70
2018-07-14T22:05:36.610Z,49.70
2018-07-14T22:10:39.875Z,49.50
2018-07-14T22:15:43.514Z,49.50
2018-07-14T22:20:46.720Z,49.50
2018-07-14T22:25:49.969Z,48.60
2018-07-14T22:30:53.266Z,49.30
2018-07-14T22:35:56.578Z,49.40
2018-07-14T22:40:59.879Z,49.10
2018-07-14T22:46:03.218Z,49.30
2018-07-14T22:51:06.602Z,50.00
2018-07-14T22:56:09.858Z,50.50
2018-07-14T23:01:13.250Z,50.80
2018-07-14T23:06:16.570Z,51.10
2018-07-14T23:11:19.831Z,50.40
2018-07-14T23:16:23.168Z,50.30
2018-07-14T23:21:26.478Z,49.60
2018-07-14T23:26:29.736Z,49.30
2018-07-14T23:31:32.989Z,49.40
2018-07-14T23:36:36.276Z,50.60
2018-07-14T23:41:39.546Z,49.90
2018-07-14T23:46:42.823Z,49.80
2018-07-14T23:51:46.106Z,50.00
2018-07-14T23:56:49.381Z,52.10
